Time;durP1;ratioP1;P1;durP2;ratioP2;P2;SDS_P1;SDS_P2;PMS_P1;PMS_P2;Temp;Humidity;BMP_temperature;BMP_pressure;BME280_temperature;BME280_humidity;BME280_pressure;Samples;Min_cycle;Max_cycle;Signal;HPM_P1;HPM_P2
2023/08/03 00:00:31;;;;;;;9.40;6.10;;;19.50;99.90;;;;;;5085737;28;20569;-85
2023/08/03 00:02:59;;;;;;;9.27;6.38;;;19.50;99.90;;;;;;5085460;28;20036;-84
2023/08/03 00:05:27;;;;;;;9.25;6.00;;;19.40;99.90;;;;;;5074531;28;20075;-85
2023/08/03 00:07:54;;;;;;;9.10;7.25;;;19.30;99.90;;;;;;5097406;28;20064;-84
2023/08/03 00:10:22;;;;;;;8.02;6.15;;;19.20;99.90;;;;;;5086541;28;20055;-84
2023/08/03 00:12:52;;;;;;;9.15;7.20;;;19.20;99.90;;;;;;5080480;28;20040;-84
2023/08/03 00:15:19;;;;;;;9.25;7.03;;;19.20;99.90;;;;;;5079324;28;20040;-83
2023/08/03 00:17:47;;;;;;;9.00;7.00;;;19.20;99.90;;;;;;5077897;28;20040;-84
2023/08/03 00:20:18;;;;;;;9.55;6.32;;;19.20;99.90;;;;;;5060425;28;20450;-84
2023/08/03 00:22:46;;;;;;;11.63;6.45;;;19.10;99.90;;;;;;5077828;28;20167;-84
2023/08/03 00:25:14;;;;;;;8.88;6.75;;;19.20;99.90;;;;;;5061746;28;20036;-84
2023/08/03 00:27:41;;;;;;;7.80;5.95;;;19.20;99.90;;;;;;5080853;28;20044;-83
2023/08/03 00:30:09;;;;;;;9.80;7.60;;;19.10;99.90;;;;;;5079408;28;20047;-84
2023/08/03 00:32:38;;;;;;;8.23;6.57;;;19.10;99.90;;;;;;5062839;28;20048;-85
2023/08/03 00:35:05;;;;;;;8.52;6.53;;;19.00;99.90;;;;;;5059942;28;20045;-84
2023/08/03 00:37:37;;;;;;;9.00;5.80;;;19.10;99.90;;;;;;5060623;28;20037;-85
2023/08/03 00:40:05;;;;;;;7.78;6.10;;;19.00;99.90;;;;;;5081818;28;20048;-82
2023/08/03 00:42:32;;;;;;;8.48;6.25;;;19.00;99.90;;;;;;5061213;28;20071;-83
2023/08/03 00:44:59;;;;;;;9.80;6.82;;;19.00;99.90;;;;;;5089399;28;20044;-83
2023/08/03 00:47:27;;;;;;;9.93;6.45;;;19.00;99.90;;;;;;5090118;28;20151;-83
2023/08/03 00:49:54;;;;;;;9.38;6.65;;;18.90;99.90;;;;;;5073681;28;20500;-84
2023/08/03 00:52:23;;;;;;;10.63;7.03;;;18.90;99.90;;;;;;5083205;28;20097;-84
2023/08/03 00:54:52;;;;;;;9.57;7.15;;;18.90;99.90;;;;;;5082653;28;20437;-84
2023/08/03 00:57:19;;;;;;;9.70;6.75;;;18.70;99.90;;;;;;5082764;28;20183;-85
2023/08/03 00:59:47;;;;;;;10.93;6.78;;;18.70;99.90;;;;;;5080348;28;20041;-85
2023/08/03 01:02:15;;;;;;;7.85;6.88;;;18.70;99.90;;;;;;5079920;28;20396;-83
2023/08/03 01:04:43;;;;;;;20.70;15.73;;;18.70;99.90;;;;;;5078900;28;20102;-84
2023/08/03 01:07:10;;;;;;;9.85;6.13;;;18.60;99.90;;;;;;5061659;28;20055;-84
2023/08/03 01:09:37;;;;;;;14.40;9.10;;;18.60;99.90;;;;;;5084083;28;20059;-85
2023/08/03 01:12:08;;;;;;;16.15;12.30;;;18.60;99.90;;;;;;5081533;28;20507;-85
2023/08/03 01:14:36;;;;;;;9.73;6.95;;;18.70;99.90;;;;;;5058310;28;20044;-84
2023/08/03 01:17:03;;;;;;;9.50;6.60;;;18.70;99.90;;;;;;5060298;28;20055;-86
2023/08/03 01:19:31;;;;;;;8.88;6.55;;;18.60;99.90;;;;;;5060285;28;20119;-85
2023/08/03 01:21:59;;;;;;;8.40;6.47;;;18.70;99.90;;;;;;5078442;28;20039;-85
2023/08/03 01:24:29;;;;;;;11.13;7.07;;;18.60;99.90;;;;;;5062368;28;20062;-85
2023/08/03 01:26:58;;;;;;;8.27;6.47;;;18.60;99.90;;;;;;5080118;28;20102;-85
2023/08/03 01:29:26;;;;;;;11.13;6.70;;;18.60;99.90;;;;;;5062153;28;20056;-85
2023/08/03 01:31:59;;;;;;;11.35;7.05;;;18.60;99.90;;;;;;5061952;28;20059;-85
2023/08/03 01:34:27;;;;;;;10.55;7.05;;;18.50;99.90;;;;;;5084581;28;20029;-85
2023/08/03 01:36:56;;;;;;;10.00;6.95;;;18.50;99.90;;;;;;5062605;28;20043;-85
2023/08/03 01:39:26;;;;;;;9.30;6.55;;;18.50;99.90;;;;;;5061864;28;20072;-84
2023/08/03 01:41:55;;;;;;;10.20;6.80;;;18.40;99.90;;;;;;5081298;28;20056;-84
2023/08/03 01:44:25;;;;;;;9.52;6.75;;;18.40;99.90;;;;;;5090192;28;20109;-85
2023/08/03 01:46:54;;;;;;;9.07;6.60;;;18.50;99.90;;;;;;5067665;28;20044;-85
2023/08/03 01:49:23;;;;;;;8.75;6.82;;;18.40;99.90;;;;;;5078517;28;20032;-85
2023/08/03 01:51:50;;;;;;;9.35;6.63;;;18.30;99.90;;;;;;5075881;28;20108;-86
2023/08/03 01:54:18;;;;;;;9.18;7.03;;;18.30;99.90;;;;;;5077753;28;20040;-85
2023/08/03 01:56:46;;;;;;;7.95;6.22;;;18.30;99.90;;;;;;5063050;28;20048;-85
2023/08/03 01:59:15;;;;;;;8.70;6.60;;;18.30;99.90;;;;;;5058093;28;20121;-85
2023/08/03 02:01:42;;;;;;;9.48;7.10;;;18.20;99.90;;;;;;5056739;28;20048;-85
2023/08/03 02:04:10;;;;;;;11.18;6.65;;;18.20;99.90;;;;;;5077439;28;20052;-85
2023/08/03 02:06:39;;;;;;;9.43;6.60;;;18.20;99.90;;;;;;5054826;28;20037;-85
2023/08/03 02:09:07;;;;;;;9.18;7.15;;;18.10;99.90;;;;;;5054172;28;20036;-84
2023/08/03 02:11:35;;;;;;;11.75;7.30;;;18.10;99.90;;;;;;5080193;28;20123;-85
2023/08/03 02:14:03;;;;;;;10.18;7.35;;;18.10;99.90;;;;;;5069330;28;20048;-84
2023/08/03 02:16:32;;;;;;;8.93;6.82;;;18.10;99.90;;;;;;5060616;28;20049;-85
2023/08/03 02:18:59;;;;;;;9.65;7.68;;;18.10;99.90;;;;;;5064794;28;20275;-85
2023/08/03 02:21:27;;;;;;;9.38;7.18;;;18.00;99.90;;;;;;5053669;28;20155;-85
2023/08/03 02:23:55;;;;;;;11.48;8.35;;;17.90;99.90;;;;;;5068916;28;21025;-85
2023/08/03 02:26:22;;;;;;;11.35;7.70;;;17.80;99.90;;;;;;5053873;28;20496;-85
2023/08/03 02:28:50;;;;;;;11.52;7.20;;;17.90;99.90;;;;;;5052842;28;20048;-85
2023/08/03 02:31:18;;;;;;;9.52;7.32;;;17.90;99.90;;;;;;5057709;28;20464;-85
2023/08/03 02:33:51;;;;;;;10.35;7.47;;;17.80;99.90;;;;;;5050867;28;20040;-85
2023/08/03 02:36:25;;;;;;;9.75;7.25;;;17.80;99.90;;;;;;5053702;28;20500;-86
2023/08/03 02:38:56;;;;;;;9.43;6.88;;;17.90;99.90;;;;;;5074908;28;20059;-85
2023/08/03 02:41:25;;;;;;;10.32;6.63;;;17.80;99.90;;;;;;5051102;28;20127;-85
2023/08/03 02:43:52;;;;;;;11.07;7.13;;;17.80;99.90;;;;;;5050650;28;20047;-84
2023/08/03 02:46:25;;;;;;;10.73;7.43;;;17.80;99.90;;;;;;5053567;28;20048;-85
2023/08/03 02:48:54;;;;;;;9.77;6.85;;;17.90;99.90;;;;;;5053420;28;20484;-85
2023/08/03 02:51:26;;;;;;;10.38;6.97;;;17.90;99.90;;;;;;5053230;28;20052;-85
2023/08/03 02:53:55;;;;;;;8.90;7.50;;;17.90;99.90;;;;;;5078466;28;20045;-86
2023/08/03 02:56:24;;;;;;;9.88;7.20;;;17.90;99.90;;;;;;5053729;28;20125;-86
2023/08/03 02:58:54;;;;;;;10.43;6.85;;;17.80;99.90;;;;;;5057422;28;20058;-87
2023/08/03 03:01:33;;;;;;;9.02;6.97;;;17.80;99.90;;;;;;5064319;28;20072;-85
2023/08/03 03:04:02;;;;;;;9.88;7.07;;;17.80;99.90;;;;;;5062628;28;20112;-85
2023/08/03 03:06:31;;;;;;;9.93;7.05;;;17.70;99.90;;;;;;5062143;28;20158;-85
2023/08/03 03:08:58;;;;;;;8.10;7.07;;;17.70;99.90;;;;;;5063330;28;20038;-85
2023/08/03 03:11:26;;;;;;;9.60;6.88;;;17.60;99.90;;;;;;5061873;28;20090;-85
2023/08/03 03:13:53;;;;;;;9.15;7.68;;;17.60;99.90;;;;;;5080078;28;20043;-85
2023/08/03 03:16:25;;;;;;;10.98;7.20;;;17.60;99.90;;;;;;5062982;28;20036;-85
2023/08/03 03:18:54;;;;;;;10.52;6.22;;;17.70;99.90;;;;;;5060906;28;20044;-84
2023/08/03 03:21:23;;;;;;;12.07;7.40;;;17.70;99.90;;;;;;5063031;28;20113;-86
2023/08/03 03:23:52;;;;;;;10.02;7.50;;;17.70;99.90;;;;;;5062490;28;20066;-86
2023/08/03 03:26:21;;;;;;;10.60;7.63;;;17.70;99.90;;;;;;5081087;28;20048;-85
2023/08/03 03:28:48;;;;;;;12.57;8.77;;;17.70;99.90;;;;;;5062389;28;20645;-85
2023/08/03 03:31:20;;;;;;;11.02;7.50;;;17.60;99.90;;;;;;5063265;28;20048;-85
2023/08/03 03:33:50;;;;;;;12.30;7.90;;;17.70;99.90;;;;;;5066069;28;20106;-85
2023/08/03 03:36:17;;;;;;;11.15;9.18;;;17.70;99.90;;;;;;5064512;28;20453;-85
2023/08/03 03:38:46;;;;;;;10.30;9.07;;;17.70;99.90;;;;;;5102994;28;20028;-86
2023/08/03 03:41:14;;;;;;;11.25;10.10;;;17.60;99.90;;;;;;5080360;28;20024;-86
2023/08/03 03:43:44;;;;;;;11.10;10.00;;;17.50;99.90;;;;;;5068799;28;20040;-86
2023/08/03 03:46:12;;;;;;;13.10;10.45;;;17.50;99.90;;;;;;5068441;28;20067;-85
2023/08/03 03:48:40;;;;;;;15.27;10.50;;;17.50;99.90;;;;;;5068062;28;20044;-86
2023/08/03 03:51:23;;;;;;;10.60;8.90;;;17.60;99.90;;;;;;5071991;28;20495;-84
2023/08/03 03:53:57;;;;;;;12.50;8.73;;;17.70;99.90;;;;;;5072854;28;20040;-85
2023/08/03 03:56:24;;;;;;;11.70;8.60;;;17.70;99.90;;;;;;5070446;28;20089;-86
2023/08/03 03:58:51;;;;;;;11.07;9.00;;;17.70;99.90;;;;;;5061012;28;20040;-86
2023/08/03 04:01:20;;;;;;;11.75;8.30;;;17.60;99.90;;;;;;5053176;28;20060;-85
2023/08/03 04:03:51;;;;;;;10.57;8.18;;;17.80;99.90;;;;;;5048636;28;20128;-85
2023/08/03 04:06:19;;;;;;;8.60;7.05;;;18.10;99.90;;;;;;5049589;28;20064;-85
2023/08/03 04:08:47;;;;;;;9.55;6.30;;;18.40;99.90;;;;;;5068142;28;20040;-85
2023/08/03 04:11:16;;;;;;;7.95;6.35;;;18.80;99.90;;;;;;5069556;28;20387;-84
2023/08/03 04:13:43;;;;;;;13.55;6.00;;;19.00;99.90;;;;;;5066974;28;20163;-84
2023/08/03 04:16:11;;;;;;;8.07;5.93;;;19.40;99.90;;;;;;5068623;28;20127;-84
2023/08/03 04:18:39;;;;;;;8.60;6.53;;;19.90;99.90;;;;;;5067212;28;20098;-81
2023/08/03 04:21:06;;;;;;;8.20;6.10;;;20.50;99.90;;;;;;5051305;28;20048;-84
2023/08/03 04:23:34;;;;;;;9.73;6.95;;;21.00;99.90;;;;;;5049195;28;20044;-83
2023/08/03 04:26:07;;;;;;;10.02;6.97;;;21.50;99.90;;;;;;5048803;28;20141;-83
2023/08/03 04:28:36;;;;;;;11.23;7.45;;;21.80;99.90;;;;;;5066416;28;20044;-83
2023/08/03 04:31:04;;;;;;;13.70;7.50;;;22.00;99.90;;;;;;5050409;28;20055;-83
2023/08/03 04:33:32;;;;;;;9.73;7.10;;;22.30;99.90;;;;;;5047977;28;20154;-83
2023/08/03 04:36:03;;;;;;;18.35;9.18;;;22.70;99.90;;;;;;5051062;28;20047;-81
2023/08/03 04:38:35;;;;;;;10.73;6.97;;;23.20;99.90;;;;;;5075718;28;20045;-83
2023/08/03 04:41:05;;;;;;;10.93;7.25;;;23.80;99.90;;;;;;5033623;28;20041;-83
2023/08/03 04:43:38;;;;;;;10.20;7.20;;;24.30;99.90;;;;;;5048129;28;20040;-83
2023/08/03 04:46:08;;;;;;;10.85;7.57;;;24.70;99.90;;;;;;5050468;28;20055;-83
2023/08/03 04:48:36;;;;;;;12.38;7.72;;;24.90;99.90;;;;;;5048715;28;20048;-83
2023/08/03 04:51:08;;;;;;;12.05;8.20;;;25.10;99.90;;;;;;5050207;28;20044;-83
2023/08/03 04:53:37;;;;;;;9.63;6.63;;;24.70;99.90;;;;;;5050181;28;20045;-83
2023/08/03 04:56:05;;;;;;;13.15;7.75;;;24.40;99.90;;;;;;5048788;28;20378;-83
2023/08/03 04:58:32;;;;;;;10.90;6.95;;;23.90;99.90;;;;;;5069550;28;20059;-83
2023/08/03 05:01:02;;;;;;;10.38;6.68;;;23.30;99.90;;;;;;5061102;28;20460;-83
2023/08/03 05:03:31;;;;;;;11.30;7.18;;;22.80;99.90;;;;;;5079630;28;20034;-84
2023/08/03 05:05:58;;;;;;;11.40;6.72;;;22.80;99.90;;;;;;5078402;28;20037;-84
2023/08/03 05:08:26;;;;;;;10.50;7.10;;;22.90;99.90;;;;;;5078466;28;20059;-83
2023/08/03 05:10:54;;;;;;;9.80;6.47;;;22.90;99.90;;;;;;5061523;28;20051;-83
2023/08/03 05:13:23;;;;;;;8.98;6.63;;;22.90;99.90;;;;;;5060972;28;20048;-84
2023/08/03 05:15:50;;;;;;;9.15;6.22;;;22.80;99.90;;;;;;5078744;28;20048;-84
2023/08/03 05:18:19;;;;;;;12.02;6.75;;;22.80;99.90;;;;;;5059702;28;20044;-83
2023/08/03 05:20:46;;;;;;;11.63;6.38;;;22.80;99.90;;;;;;5059506;28;20040;-83
2023/08/03 05:23:14;;;;;;;10.80;5.90;;;22.80;99.90;;;;;;5059280;28;20060;-83
2023/08/03 05:25:42;;;;;;;9.55;6.85;;;23.30;99.90;;;;;;5059861;28;20393;-83
2023/08/03 05:28:09;;;;;;;10.02;6.82;;;23.90;99.90;;;;;;5076854;28;20044;-83
2023/08/03 05:30:37;;;;;;;8.07;6.07;;;24.50;99.90;;;;;;5075251;28;20028;-83
2023/08/03 05:33:05;;;;;;;8.05;6.32;;;24.80;99.90;;;;;;5078405;28;20048;-83
2023/08/03 05:35:34;;;;;;;8.82;6.05;;;25.20;99.90;;;;;;5078000;28;20051;-84
2023/08/03 05:38:01;;;;;;;9.98;7.30;;;25.80;99.90;;;;;;5061900;28;20047;-81
2023/08/03 05:40:29;;;;;;;11.35;6.68;;;26.20;99.90;;;;;;5082222;28;20051;-83
2023/08/03 05:42:56;;;;;;;15.10;6.03;;;26.40;99.90;;;;;;5085607;28;20418;-82
2023/08/03 05:45:38;;;;;;;7.90;6.03;;;26.90;99.90;;;;;;5084380;28;20476;-81
2023/08/03 05:48:13;;;;;;;8.52;5.82;;;27.00;99.90;;;;;;5089710;28;20043;-80
2023/08/03 05:50:44;;;;;;;9.57;6.13;;;27.00;99.90;;;;;;5090774;28;20092;-82
2023/08/03 05:53:12;;;;;;;11.25;7.03;;;26.90;99.90;;;;;;5076232;28;20525;-83
2023/08/03 05:55:40;;;;;;;9.75;6.20;;;27.00;99.90;;;;;;5091430;28;20059;-84
2023/08/03 05:58:10;;;;;;;8.23;5.40;;;27.10;99.90;;;;;;5088868;28;20070;-83
2023/08/03 06:00:38;;;;;;;8.73;5.82;;;27.10;99.90;;;;;;5068356;28;20407;-83
2023/08/03 06:03:08;;;;;;;8.10;5.40;;;27.30;99.90;;;;;;5085414;28;20044;-81
2023/08/03 06:05:45;;;;;;;9.88;5.47;;;27.40;99.90;;;;;;5094963;28;20048;-83
2023/08/03 06:08:17;;;;;;;11.80;8.88;;;27.40;99.90;;;;;;5102212;28;20129;-82
2023/08/03 06:10:46;;;;;;;11.57;9.13;;;27.30;99.90;;;;;;5101403;28;20058;-84
2023/08/03 06:13:15;;;;;;;15.80;8.30;;;27.20;99.90;;;;;;5105743;28;20047;-83
2023/08/03 06:15:44;;;;;;;7.30;5.68;;;27.20;99.90;;;;;;5108163;28;20051;-84
2023/08/03 06:18:13;;;;;;;11.30;5.70;;;27.20;99.90;;;;;;5104009;28;20071;-84
2023/08/03 06:20:51;;;;;;;8.18;5.90;;;27.00;99.90;;;;;;5106196;28;20056;-81
2023/08/03 06:23:20;;;;;;;8.43;6.63;;;27.10;99.90;;;;;;5103168;28;20059;-82
2023/08/03 06:25:49;;;;;;;11.20;6.75;;;27.30;99.90;;;;;;5085134;28;20100;-83
2023/08/03 06:28:18;;;;;;;7.45;5.90;;;27.40;99.90;;;;;;5097239;28;20043;-84
2023/08/03 06:30:47;;;;;;;9.60;5.80;;;27.50;99.90;;;;;;5069469;28;20083;-83
2023/08/03 06:33:15;;;;;;;15.18;11.68;;;27.60;99.90;;;;;;5085640;28;20059;-83
2023/08/03 06:35:44;;;;;;;18.40;11.40;;;27.60;99.90;;;;;;5087659;28;20044;-83
2023/08/03 06:38:16;;;;;;;11.75;6.90;;;27.80;99.90;;;;;;5093318;28;20056;-91
2023/08/03 06:40:46;;;;;;;21.50;14.82;;;27.90;99.90;;;;;;5085795;28;20109;-82
2023/08/03 06:43:14;;;;;;;7.60;6.07;;;28.10;99.90;;;;;;5090129;28;20148;-84
2023/08/03 06:45:49;;;;;;;8.88;5.70;;;28.40;99.90;;;;;;5086449;28;20050;-83
2023/08/03 06:48:17;;;;;;;11.65;6.32;;;28.50;99.90;;;;;;5081004;28;20049;-84
2023/08/03 06:50:45;;;;;;;8.32;7.20;;;28.50;99.90;;;;;;5082233;28;20093;-84
2023/08/03 06:53:15;;;;;;;9.98;6.13;;;28.60;99.90;;;;;;5083569;28;20048;-86
2023/08/03 06:55:48;;;;;;;9.13;5.78;;;28.80;99.90;;;;;;5084765;28;20036;-84
2023/08/03 06:58:17;;;;;;;10.40;7.97;;;28.70;99.90;;;;;;5084668;28;20052;-87
2023/08/03 07:00:44;;;;;;;8.10;6.40;;;28.80;99.90;;;;;;5091095;28;20044;-86
2023/08/03 07:03:13;;;;;;;7.07;5.07;;;29.00;99.90;;;;;;5055482;28;20106;-85
2023/08/03 07:05:41;;;;;;;9.32;4.85;;;29.20;99.90;;;;;;5084287;28;20040;-83
2023/08/03 07:08:08;;;;;;;6.47;5.05;;;29.40;99.90;;;;;;5077077;28;20052;-85
2023/08/03 07:10:38;;;;;;;8.45;5.43;;;29.50;99.90;;;;;;5063870;28;20535;-85
2023/08/03 07:13:06;;;;;;;10.05;6.03;;;29.70;99.90;;;;;;5063238;28;20551;-86
2023/08/03 07:15:34;;;;;;;6.45;4.88;;;29.80;99.90;;;;;;5069045;28;20033;-86
2023/08/03 07:18:04;;;;;;;8.65;5.35;;;29.90;99.90;;;;;;5080943;28;20049;-84
2023/08/03 07:20:31;;;;;;;10.45;4.60;;;30.00;99.90;;;;;;5094306;28;20099;-83
2023/08/03 07:22:59;;;;;;;7.72;4.78;;;30.00;99.90;;;;;;5106515;28;20070;-88
2023/08/03 07:25:28;;;;;;;8.15;4.82;;;30.10;99.90;;;;;;5090713;28;20128;-88
2023/08/03 07:27:57;;;;;;;7.35;4.80;;;30.20;99.90;;;;;;5065395;28;20433;-84
2023/08/03 07:30:25;;;;;;;7.50;4.80;;;30.20;99.90;;;;;;5081311;28;20047;-84
2023/08/03 07:32:52;;;;;;;9.20;5.07;;;30.30;99.90;;;;;;5078621;28;20558;-84
2023/08/03 07:35:20;;;;;;;8.45;6.18;;;30.30;99.90;;;;;;5082520;28;21135;-82
2023/08/03 07:37:48;;;;;;;11.90;7.50;;;30.40;99.90;;;;;;5079732;28;20048;-83
2023/08/03 07:40:15;;;;;;;9.70;7.70;;;30.50;99.90;;;;;;5058253;28;20040;-83
2023/08/03 07:42:43;;;;;;;7.78;4.75;;;30.60;99.90;;;;;;5089630;28;20112;-83
2023/08/03 07:45:12;;;;;;;7.88;4.55;;;30.70;99.90;;;;;;5082970;28;20072;-82
2023/08/03 07:47:40;;;;;;;8.32;5.95;;;30.70;99.90;;;;;;5083634;28;20052;-84
2023/08/03 07:50:08;;;;;;;8.25;4.78;;;30.80;99.90;;;;;;5084640;28;20434;-83
2023/08/03 07:52:35;;;;;;;8.25;5.53;;;30.80;99.90;;;;;;5077898;28;20084;-84
2023/08/03 07:55:03;;;;;;;6.40;4.57;;;30.80;99.90;;;;;;5080622;28;20449;-83
2023/08/03 07:57:31;;;;;;;6.70;4.78;;;30.80;99.90;;;;;;5084843;28;20054;-84
2023/08/03 07:59:59;;;;;;;8.43;4.82;;;30.90;99.90;;;;;;5079280;28;20056;-81
2023/08/03 08:02:28;;;;;;;9.82;6.22;;;31.00;99.90;;;;;;5061599;28;20044;-81
2023/08/03 08:04:56;;;;;;;6.53;4.60;;;31.20;99.90;;;;;;5078184;28;20067;-82
2023/08/03 08:07:24;;;;;;;6.95;4.72;;;31.20;99.90;;;;;;5078959;28;20051;-81
2023/08/03 08:09:54;;;;;;;7.57;4.90;;;31.10;99.90;;;;;;5060919;28;20047;-83
2023/08/03 08:12:25;;;;;;;6.05;4.60;;;31.10;99.90;;;;;;5079813;28;20062;-81
2023/08/03 08:14:52;;;;;;;11.00;4.22;;;31.10;99.90;;;;;;5079888;28;20117;-83
2023/08/03 08:17:20;;;;;;;7.50;4.40;;;31.10;99.90;;;;;;5081229;28;20040;-83
2023/08/03 08:19:50;;;;;;;6.85;4.95;;;31.20;99.90;;;;;;5080479;28;20032;-82
2023/08/03 08:22:17;;;;;;;7.63;4.15;;;31.30;99.90;;;;;;5079991;28;20040;-83
2023/08/03 08:24:46;;;;;;;8.77;5.60;;;31.40;99.90;;;;;;5079520;28;20032;-83
2023/08/03 08:27:13;;;;;;;7.72;4.43;;;31.50;99.90;;;;;;5079670;28;20053;-79
2023/08/03 08:29:44;;;;;;;8.15;4.60;;;31.60;99.90;;;;;;5078456;28;20051;-82
2023/08/03 08:32:11;;;;;;;6.13;4.20;;;31.60;99.90;;;;;;5078454;28;20487;-82
2023/08/03 08:34:40;;;;;;;9.10;4.82;;;31.60;99.90;;;;;;5062697;28;20037;-84
2023/08/03 08:37:10;;;;;;;5.63;4.40;;;31.60;99.90;;;;;;5062272;28;20135;-81
2023/08/03 08:39:37;;;;;;;6.75;4.32;;;31.70;99.90;;;;;;5079667;28;20121;-81
2023/08/03 08:42:12;;;;;;;7.20;4.35;;;31.90;99.90;;;;;;5078530;28;20037;-80
2023/08/03 08:44:39;;;;;;;9.77;5.70;;;31.90;99.90;;;;;;5079717;28;20519;-81
2023/08/03 08:47:07;;;;;;;8.35;4.65;;;31.90;99.90;;;;;;5079987;28;20040;-81
2023/08/03 08:49:35;;;;;;;7.22;4.50;;;32.00;99.90;;;;;;5061950;28;20056;-85
2023/08/03 08:52:03;;;;;;;5.65;4.60;;;32.00;99.90;;;;;;5102389;28;20067;-83
2023/08/03 08:54:33;;;;;;;7.15;5.03;;;32.00;99.90;;;;;;5104698;28;20405;-82
2023/08/03 08:57:01;;;;;;;7.88;5.00;;;32.00;99.90;;;;;;5067797;28;20048;-83
2023/08/03 08:59:29;;;;;;;6.45;4.70;;;32.10;99.90;;;;;;5088812;28;20088;-85
2023/08/03 09:01:56;;;;;;;7.00;4.25;;;31.90;99.90;;;;;;5062970;28;20142;-84
2023/08/03 09:04:28;;;;;;;7.15;4.38;;;31.70;99.90;;;;;;5062960;28;20140;-83
2023/08/03 09:06:56;;;;;;;6.95;4.93;;;31.80;99.90;;;;;;5079675;28;20045;-83
2023/08/03 09:09:28;;;;;;;7.45;4.57;;;32.00;99.90;;;;;;5078933;28;20040;-82
2023/08/03 09:11:57;;;;;;;9.82;6.45;;;32.10;99.90;;;;;;5076775;28;20056;-85
2023/08/03 09:14:24;;;;;;;8.63;4.72;;;32.10;99.90;;;;;;5059436;28;20067;-83
2023/08/03 09:16:52;;;;;;;6.78;4.18;;;32.20;99.90;;;;;;5060925;28;20571;-84
2023/08/03 09:19:38;;;;;;;6.82;4.50;;;32.20;99.90;;;;;;5078092;28;20048;-85
2023/08/03 09:22:06;;;;;;;7.25;4.95;;;32.10;99.90;;;;;;5078290;28;20055;-85
2023/08/03 09:24:36;;;;;;;7.47;4.45;;;32.20;99.90;;;;;;5081171;28;20231;-83
2023/08/03 09:27:05;;;;;;;6.55;4.57;;;32.20;99.90;;;;;;5060350;28;20072;-84
2023/08/03 09:29:34;;;;;;;6.68;4.75;;;32.40;99.90;;;;;;5077526;28;20056;-85
2023/08/03 09:32:05;;;;;;;6.45;4.95;;;32.60;99.90;;;;;;5081827;28;20547;-86
2023/08/03 09:34:38;;;;;;;9.50;7.80;;;32.60;99.90;;;;;;5086459;28;20040;-84
2023/08/03 09:37:06;;;;;;;8.18;5.30;;;32.60;99.90;;;;;;5072222;28;20055;-84
2023/08/03 09:39:35;;;;;;;7.57;6.78;;;32.50;99.90;;;;;;5091421;28;20372;-84
2023/08/03 09:42:06;;;;;;;8.90;4.88;;;32.60;99.90;;;;;;5079473;28;20384;-84
2023/08/03 09:44:38;;;;;;;10.48;6.93;;;32.30;99.90;;;;;;5080334;28;20072;-84
2023/08/03 09:47:06;;;;;;;8.18;5.85;;;32.50;99.90;;;;;;5075289;28;20049;-85
2023/08/03 09:49:34;;;;;;;6.82;5.40;;;32.60;99.90;;;;;;5080532;28;20270;-84
2023/08/03 09:52:10;;;;;;;8.25;5.30;;;32.60;99.90;;;;;;5079824;28;20143;-84
2023/08/03 09:54:42;;;;;;;8.55;5.10;;;32.50;99.90;;;;;;5079389;28;20036;-84
2023/08/03 09:57:13;;;;;;;6.45;4.93;;;32.60;99.90;;;;;;5094450;28;20646;-83
2023/08/03 09:59:44;;;;;;;8.23;4.82;;;32.40;99.90;;;;;;5095550;28;20060;-84
2023/08/03 10:02:14;;;;;;;5.65;4.35;;;32.30;99.90;;;;;;5086948;28;20514;-83
2023/08/03 10:04:44;;;;;;;6.63;5.13;;;32.30;99.90;;;;;;5083389;28;20048;-85
2023/08/03 10:07:15;;;;;;;9.85;8.10;;;32.50;99.90;;;;;;5100733;28;20075;-86
2023/08/03 10:09:50;;;;;;;8.80;5.45;;;32.80;99.90;;;;;;5106427;28;20042;-90
2023/08/03 10:12:35;;;;;;;7.50;5.32;;;33.10;99.90;;;;;;5093924;28;20056;-86
2023/08/03 10:15:06;;;;;;;6.65;4.25;;;33.20;99.90;;;;;;5088768;28;20689;-87
2023/08/03 10:17:46;;;;;;;5.88;5.20;;;33.10;99.90;;;;;;5068334;28;20066;-87
2023/08/03 10:20:16;;;;;;;6.63;4.60;;;33.20;99.90;;;;;;5082864;28;20529;-88
2023/08/03 10:23:14;;;;;;;6.80;4.40;;;33.10;99.90;;;;;;5087335;28;20071;-89
2023/08/03 10:26:01;;;;;;;7.63;5.53;;;32.90;99.90;;;;;;5079860;28;20049;-88
2023/08/03 10:28:45;;;;;;;;;;;33.20;99.90;;;;;;5090770;28;20127;-90
2023/08/03 10:31:14;;;;;;;10.10;8.43;;;33.40;99.90;;;;;;5099274;28;19938;-83
2023/08/03 10:34:02;;;;;;;8.48;5.22;;;33.30;99.90;;;;;;5063771;28;20150;-86
2023/08/03 10:36:48;;;;;;;6.45;4.20;;;33.20;99.90;;;;;;5066124;28;20491;-86
2023/08/03 10:39:18;;;;;;;8.63;5.25;;;33.20;99.90;;;;;;5083219;28;20040;-85
2023/08/03 10:41:50;;;;;;;6.13;4.78;;;33.20;99.90;;;;;;5081741;28;20068;-89
2023/08/03 10:44:26;;;;;;;8.30;6.05;;;33.20;99.90;;;;;;5081942;28;20048;-85
2023/08/03 10:46:55;;;;;;;6.55;5.15;;;33.40;99.90;;;;;;5080147;28;20429;-86
2023/08/03 10:49:52;;;;;;;7.70;4.70;;;33.60;99.90;;;;;;5080202;28;20140;-85
2023/08/03 10:52:21;;;;;;;7.95;5.32;;;33.70;99.90;;;;;;5080767;28;20044;-84
2023/08/03 10:54:49;;;;;;;9.25;4.95;;;33.60;99.90;;;;;;5064671;28;20044;-84
2023/08/03 10:57:20;;;;;;;6.82;4.65;;;33.50;99.90;;;;;;5082537;28;20492;-84
2023/08/03 10:59:50;;;;;;;9.57;4.70;;;33.30;99.90;;;;;;5080779;28;20072;-84
2023/08/03 11:02:20;;;;;;;6.57;4.60;;;33.30;99.90;;;;;;5082779;28;20090;-84
2023/08/03 11:04:50;;;;;;;6.57;5.45;;;33.30;99.90;;;;;;5083166;28;20506;-88
2023/08/03 11:07:21;;;;;;;7.35;6.07;;;33.40;99.90;;;;;;5083173;28;20132;-87
2023/08/03 11:09:52;;;;;;;6.65;5.07;;;33.50;99.90;;;;;;5084503;28;20044;-85
2023/08/03 11:12:20;;;;;;;9.65;5.38;;;33.60;99.90;;;;;;5084692;28;20048;-84
2023/08/03 11:14:52;;;;;;;7.43;4.75;;;33.50;99.90;;;;;;5084048;28;20040;-86
2023/08/03 11:17:22;;;;;;;7.07;4.55;;;33.20;99.90;;;;;;5082225;28;20048;-82
2023/08/03 11:19:50;;;;;;;5.85;5.00;;;33.10;99.90;;;;;;5063212;28;20044;-83
2023/08/03 11:22:17;;;;;;;6.53;5.07;;;33.10;99.90;;;;;;5082551;28;20569;-83
2023/08/03 11:24:45;;;;;;;8.55;6.50;;;33.30;99.90;;;;;;5080426;28;20123;-85
2023/08/03 11:27:13;;;;;;;6.15;4.70;;;33.40;99.90;;;;;;5080309;28;20055;-83
2023/08/03 11:29:40;;;;;;;7.70;4.90;;;33.10;99.90;;;;;;5079385;28;20051;-84
2023/08/03 11:32:11;;;;;;;7.90;4.43;;;33.10;99.90;;;;;;5081524;28;20040;-83
2023/08/03 11:34:39;;;;;;;6.93;4.60;;;32.90;99.90;;;;;;5080726;28;20113;-85
2023/08/03 11:37:08;;;;;;;6.32;4.25;;;32.90;99.90;;;;;;5096418;28;20364;-84
2023/08/03 11:39:36;;;;;;;7.47;5.07;;;33.00;99.90;;;;;;5062512;28;20087;-85
2023/08/03 11:42:04;;;;;;;10.25;4.95;;;33.10;99.90;;;;;;5080944;28;20090;-82
2023/08/03 11:44:38;;;;;;;7.60;4.60;;;33.20;99.90;;;;;;5081971;28;20049;-84
2023/08/03 11:47:07;;;;;;;6.00;4.45;;;33.40;99.90;;;;;;5081435;28;20510;-82
2023/08/03 11:49:36;;;;;;;6.25;4.25;;;33.50;99.90;;;;;;5079962;28;20051;-84
2023/08/03 11:52:04;;;;;;;6.32;4.70;;;33.40;99.90;;;;;;5079387;28;20033;-83
2023/08/03 11:54:34;;;;;;;7.70;4.82;;;33.50;99.90;;;;;;5082790;28;20479;-82
2023/08/03 11:59:43;;;;;;;7.43;4.53;;;33.70;99.90;;;;;;5054177;28;20051;-87
2023/08/03 12:02:12;;;;;;;8.55;4.68;;;33.90;99.90;;;;;;5074117;28;20048;-85
2023/08/03 12:04:42;;;;;;;7.32;4.30;;;34.00;99.90;;;;;;5094174;28;20048;-83
2023/08/03 12:07:15;;;;;;;5.65;4.50;;;34.10;99.90;;;;;;5073187;28;20043;-81
2023/08/03 12:09:43;;;;;;;5.93;4.78;;;34.00;99.90;;;;;;5090008;28;20411;-82
2023/08/03 12:12:11;;;;;;;7.18;4.38;;;34.00;99.90;;;;;;5089660;28;20080;-81
2023/08/03 12:14:40;;;;;;;8.20;4.45;;;34.10;99.90;;;;;;5091002;28;20450;-83
2023/08/03 12:17:12;;;;;;;6.38;5.15;;;34.00;99.90;;;;;;5089419;28;20078;-83
2023/08/03 12:19:41;;;;;;;9.50;8.02;;;34.10;99.90;;;;;;5090973;28;20050;-81
2023/08/03 12:22:09;;;;;;;8.68;6.85;;;34.30;99.90;;;;;;5091493;28;20129;-83
2023/08/03 12:24:36;;;;;;;8.45;6.53;;;34.40;99.90;;;;;;5088300;28;20522;-83
2023/08/03 12:27:08;;;;;;;7.95;6.00;;;34.40;99.90;;;;;;5065659;28;20052;-82
2023/08/03 12:29:36;;;;;;;6.35;4.47;;;34.60;99.90;;;;;;5085884;28;20052;-84
2023/08/03 12:32:04;;;;;;;7.10;4.70;;;34.50;99.90;;;;;;5087513;28;20488;-84
2023/08/03 12:34:34;;;;;;;7.57;4.95;;;34.30;99.90;;;;;;5069063;28;20105;-84
2023/08/03 12:37:04;;;;;;;6.60;5.40;;;34.40;99.90;;;;;;5093890;28;20064;-85
2023/08/03 12:39:31;;;;;;;6.80;5.38;;;34.40;99.90;;;;;;5094648;28;20059;-86
2023/08/03 12:41:59;;;;;;;7.57;4.93;;;34.60;99.90;;;;;;5093939;28;20048;-85
2023/08/03 12:44:34;;;;;;;8.95;5.03;;;34.70;99.90;;;;;;5091016;28;20033;-82
2023/08/03 12:47:12;;;;;;;8.65;5.75;;;34.70;99.90;;;;;;5072314;28;20070;-84
2023/08/03 12:49:39;;;;;;;6.60;4.78;;;34.70;99.90;;;;;;5093575;28;20070;-84
2023/08/03 12:52:09;;;;;;;6.68;4.60;;;34.50;99.90;;;;;;5094601;28;20044;-84
2023/08/03 12:54:36;;;;;;;6.40;4.22;;;33.90;99.90;;;;;;5093787;28;20071;-85
2023/08/03 12:57:04;;;;;;;6.45;5.72;;;33.80;99.90;;;;;;5094582;28;20056;-86